Time;durP1;ratioP1;P1;durP2;ratioP2;P2;SDS_P1;SDS_P2;PMS_P1;PMS_P2;Temp;Humidity;BMP_temperature;BMP_pressure;BME280_temperature;BME280_humidity;BME280_pressure;Samples;Min_cycle;Max_cycle;Signal;HPM_P1;HPM_P2
2022/05/13 00:01:23;;;;;;;7.03;3.42;;;11.20;99.90;;;;;;5001068;28;20598;-71
2022/05/13 00:03:48;;;;;;;9.18;3.85;;;11.30;99.90;;;;;;5006782;28;20060;-70
2022/05/13 00:06:14;;;;;;;8.07;3.50;;;11.30;99.90;;;;;;4997214;28;20104;-69
2022/05/13 00:08:40;;;;;;;6.38;3.45;;;11.30;99.90;;;;;;5020555;28;20146;-70
2022/05/13 00:11:07;;;;;;;8.27;3.38;;;11.30;99.90;;;;;;5020179;28;20053;-70
2022/05/13 00:13:34;;;;;;;7.13;3.50;;;11.30;99.90;;;;;;5020796;28;20045;-70
2022/05/13 00:16:00;;;;;;;7.68;3.40;;;11.40;99.90;;;;;;4988008;28;20049;-69
2022/05/13 00:18:27;;;;;;;6.93;3.30;;;11.40;99.90;;;;;;5020053;28;20524;-70
2022/05/13 00:20:54;;;;;;;7.32;4.18;;;11.40;99.90;;;;;;5020378;28;20053;-70
2022/05/13 00:23:19;;;;;;;7.55;3.08;;;11.40;99.90;;;;;;5020341;28;20041;-69
2022/05/13 00:25:45;;;;;;;8.27;3.05;;;11.50;99.90;;;;;;4987263;28;20042;-69
2022/05/13 00:28:13;;;;;;;7.13;3.60;;;11.50;99.90;;;;;;5009057;28;20298;-70
2022/05/13 00:30:45;;;;;;;9.07;3.95;;;11.50;99.90;;;;;;5013215;28;20046;-69
2022/05/13 00:33:11;;;;;;;6.50;2.72;;;11.50;99.90;;;;;;5027682;28;20034;-70
2022/05/13 00:35:38;;;;;;;10.25;3.75;;;11.60;99.90;;;;;;4995839;28;20076;-70
2022/05/13 00:38:05;;;;;;;7.70;3.58;;;11.60;99.90;;;;;;5027759;28;20064;-70
2022/05/13 00:40:31;;;;;;;7.22;3.00;;;11.60;99.90;;;;;;5011364;28;20139;-70
2022/05/13 00:42:59;;;;;;;8.55;3.33;;;11.60;99.90;;;;;;5028217;28;20081;-70
2022/05/13 00:45:25;;;;;;;7.97;3.40;;;11.60;99.90;;;;;;5029217;28;20646;-70
2022/05/13 00:47:51;;;;;;;7.20;3.10;;;11.60;99.90;;;;;;5028414;28;20053;-70
2022/05/13 00:50:16;;;;;;;8.43;3.58;;;11.50;99.90;;;;;;5028329;28;20624;-69
2022/05/13 00:52:45;;;;;;;10.35;3.38;;;11.50;99.90;;;;;;4995479;28;20040;-69
2022/05/13 00:55:18;;;;;;;9.75;4.00;;;11.50;99.90;;;;;;5011336;28;20046;-70
2022/05/13 00:57:45;;;;;;;7.88;3.60;;;11.50;99.90;;;;;;5027974;28;20653;-70
2022/05/13 01:00:14;;;;;;;8.88;3.22;;;11.50;99.90;;;;;;5027908;28;20057;-70
2022/05/13 01:02:43;;;;;;;8.52;3.60;;;11.50;99.90;;;;;;5008918;28;20115;-70
2022/05/13 01:05:13;;;;;;;9.02;3.35;;;11.50;99.90;;;;;;4991494;28;20519;-70
2022/05/13 01:07:40;;;;;;;11.50;3.58;;;11.50;99.90;;;;;;5014907;28;20271;-70
2022/05/13 01:10:11;;;;;;;9.15;3.50;;;11.50;99.90;;;;;;5011843;28;20049;-70
2022/05/13 01:12:39;;;;;;;7.25;3.45;;;11.50;99.90;;;;;;5028368;28;20033;-70
2022/05/13 01:15:10;;;;;;;8.43;3.60;;;11.50;99.90;;;;;;5012115;28;20049;-69
2022/05/13 01:20:26;;;;;;;11.38;3.47;;;11.50;99.90;;;;;;5018290;28;20049;-69
2022/05/13 01:22:56;;;;;;;6.95;3.13;;;11.50;99.90;;;;;;5008849;28;20463;-70
2022/05/13 01:25:24;;;;;;;6.72;2.92;;;11.50;99.90;;;;;;4992132;28;20045;-69
2022/05/13 01:27:51;;;;;;;7.53;3.05;;;11.50;99.90;;;;;;4993380;28;20100;-70
2022/05/13 01:30:25;;;;;;;6.03;2.97;;;11.50;99.90;;;;;;5006808;28;20049;-69
2022/05/13 01:32:51;;;;;;;6.53;3.05;;;11.50;99.90;;;;;;5028861;28;20041;-70
2022/05/13 01:35:17;;;;;;;5.85;2.90;;;11.50;99.90;;;;;;5006317;28;20037;-70
2022/05/13 01:37:43;;;;;;;8.30;3.38;;;11.50;99.90;;;;;;5039282;28;20048;-70
2022/05/13 01:40:10;;;;;;;6.82;3.10;;;11.40;99.90;;;;;;5006431;28;20049;-70
2022/05/13 01:42:37;;;;;;;9.57;3.38;;;11.50;99.90;;;;;;4989979;28;20056;-70
2022/05/13 01:45:04;;;;;;;6.15;3.00;;;11.40;99.90;;;;;;4991210;28;20049;-70
2022/05/13 01:47:29;;;;;;;8.18;3.72;;;11.40;99.90;;;;;;5023510;28;20050;-70
2022/05/13 01:49:56;;;;;;;9.00;3.30;;;11.40;99.90;;;;;;5008540;28;20348;-69
2022/05/13 01:52:22;;;;;;;8.63;3.33;;;11.40;99.90;;;;;;5009924;28;20095;-69
2022/05/13 01:54:48;;;;;;;6.22;3.28;;;11.40;99.90;;;;;;5023208;28;20077;-70
2022/05/13 01:57:14;;;;;;;8.73;3.67;;;11.40;99.90;;;;;;5025480;28;20142;-70
2022/05/13 01:59:40;;;;;;;7.82;3.63;;;11.30;99.90;;;;;;5004648;28;20574;-69
2022/05/13 02:02:05;;;;;;;6.82;3.22;;;11.40;99.90;;;;;;5004081;28;20045;-70
2022/05/13 02:04:31;;;;;;;8.38;3.80;;;11.40;99.90;;;;;;5022991;28;20175;-70
2022/05/13 02:06:57;;;;;;;8.25;3.50;;;11.40;99.90;;;;;;5012133;28;20679;-70
2022/05/13 02:09:24;;;;;;;7.60;3.50;;;11.30;99.90;;;;;;5028287;28;20041;-70
2022/05/13 02:11:50;;;;;;;7.53;3.45;;;11.30;99.90;;;;;;5011573;28;20099;-70
2022/05/13 02:14:18;;;;;;;9.07;3.67;;;11.40;99.90;;;;;;5009845;28;20048;-70
2022/05/13 02:16:44;;;;;;;7.40;3.75;;;11.40;99.90;;;;;;5019543;28;20045;-70
2022/05/13 02:19:10;;;;;;;9.98;3.88;;;11.40;99.90;;;;;;4995761;28;20048;-70
2022/05/13 02:21:36;;;;;;;9.70;3.83;;;11.30;99.90;;;;;;5027809;28;20041;-70
2022/05/13 02:24:03;;;;;;;8.65;4.15;;;11.40;99.90;;;;;;5027997;28;20078;-70
2022/05/13 02:26:29;;;;;;;7.50;3.60;;;11.30;99.90;;;;;;5028675;28;20044;-70
2022/05/13 02:28:55;;;;;;;9.50;3.83;;;11.30;99.90;;;;;;5028140;28;20049;-70
2022/05/13 02:31:20;;;;;;;7.50;3.67;;;11.30;99.90;;;;;;5028021;28;20131;-70
2022/05/13 02:33:46;;;;;;;8.18;3.72;;;11.30;99.90;;;;;;5027841;28;20056;-70
2022/05/13 02:36:13;;;;;;;11.20;4.28;;;11.30;99.90;;;;;;5014057;28;20056;-69
2022/05/13 02:38:39;;;;;;;8.50;3.55;;;11.30;99.90;;;;;;4994046;28;20495;-70
2022/05/13 02:41:12;;;;;;;7.18;4.00;;;11.30;99.90;;;;;;5011218;28;20059;-69
2022/05/13 02:43:45;;;;;;;8.30;3.83;;;11.20;99.90;;;;;;5027667;28;20449;-70
2022/05/13 02:46:16;;;;;;;7.05;3.63;;;11.20;99.90;;;;;;5010028;28;20047;-70
2022/05/13 02:48:42;;;;;;;9.60;3.80;;;11.20;99.90;;;;;;5011495;28;20045;-69
2022/05/13 02:51:08;;;;;;;8.07;4.10;;;11.20;99.90;;;;;;4994462;28;20052;-69
2022/05/13 02:53:34;;;;;;;10.73;3.75;;;11.20;99.90;;;;;;5010499;28;20052;-70
2022/05/13 02:56:00;;;;;;;11.15;4.07;;;11.20;99.90;;;;;;5010398;28;20049;-69
2022/05/13 02:58:25;;;;;;;9.57;4.00;;;11.20;99.90;;;;;;5027421;28;20418;-69
2022/05/13 03:00:52;;;;;;;9.90;4.40;;;11.20;99.90;;;;;;5011123;28;20045;-69
2022/05/13 03:03:18;;;;;;;9.00;4.15;;;11.20;99.90;;;;;;4992249;28;20559;-69
2022/05/13 03:05:44;;;;;;;11.05;4.30;;;11.20;99.90;;;;;;5026052;28;20041;-69
2022/05/13 03:08:10;;;;;;;9.13;3.90;;;11.20;99.90;;;;;;5026882;28;20078;-69
2022/05/13 03:10:38;;;;;;;11.38;4.13;;;11.20;99.90;;;;;;4994884;28;20057;-69
2022/05/13 03:13:06;;;;;;;8.13;4.07;;;11.20;99.90;;;;;;5026629;28;20049;-69
2022/05/13 03:15:32;;;;;;;7.85;3.72;;;11.20;99.90;;;;;;4992023;28;20067;-69
2022/05/13 03:17:58;;;;;;;10.60;4.28;;;11.20;99.90;;;;;;4994268;28;20059;-69
2022/05/13 03:20:25;;;;;;;9.65;4.22;;;11.20;99.90;;;;;;4994158;28;20057;-69
2022/05/13 03:22:51;;;;;;;8.43;3.80;;;11.20;99.90;;;;;;5026797;28;20126;-69
2022/05/13 03:25:18;;;;;;;8.50;4.00;;;11.20;99.90;;;;;;5026817;28;20044;-69
2022/05/13 03:27:44;;;;;;;10.68;3.97;;;11.20;99.90;;;;;;5009019;28;20048;-70
2022/05/13 03:30:13;;;;;;;10.35;4.20;;;11.20;99.90;;;;;;5010651;28;20102;-69
2022/05/13 03:32:39;;;;;;;9.02;4.47;;;11.20;99.90;;;;;;5026880;28;20037;-69
2022/05/13 03:35:08;;;;;;;11.10;4.88;;;11.20;99.90;;;;;;5026570;28;20056;-69
2022/05/13 03:37:33;;;;;;;9.75;4.13;;;11.20;99.90;;;;;;5010382;28;20044;-69
2022/05/13 03:39:59;;;;;;;9.07;4.25;;;11.20;99.90;;;;;;5009401;28;20045;-69
2022/05/13 03:42:25;;;;;;;10.63;4.35;;;11.20;99.90;;;;;;5025726;28;20040;-69
2022/05/13 03:44:52;;;;;;;9.48;4.00;;;11.20;99.90;;;;;;5023915;28;20125;-69
2022/05/13 03:47:18;;;;;;;8.63;3.90;;;11.20;99.90;;;;;;5007926;28;20053;-70
2022/05/13 03:49:44;;;;;;;11.05;4.28;;;11.20;99.90;;;;;;5010105;28;20033;-69
2022/05/13 03:52:11;;;;;;;10.63;4.82;;;11.20;99.90;;;;;;5026296;28;20041;-69
2022/05/13 03:54:38;;;;;;;7.78;4.05;;;11.20;99.90;;;;;;5026250;28;20162;-69
2022/05/13 03:57:08;;;;;;;11.65;4.63;;;11.20;99.90;;;;;;5026158;28;20052;-69
2022/05/13 03:59:35;;;;;;;;;;;11.20;99.90;;;;;;5025765;28;20110;-69
2022/05/13 04:02:01;;;;;;;9.20;4.47;;;11.20;99.90;;;;;;5019723;28;19924;-69
2022/05/13 04:04:29;;;;;;;11.63;4.05;;;11.20;99.90;;;;;;5024801;28;20437;-70
2022/05/13 04:09:41;;;;;;;10.40;4.32;;;11.20;99.90;;;;;;5022944;28;20053;-69
2022/05/13 04:17:36;;;;;;;9.73;4.30;;;11.20;99.90;;;;;;5023493;28;20053;-69
2022/05/13 04:20:04;;;;;;;10.73;4.57;;;11.20;99.90;;;;;;5006384;28;20111;-69
2022/05/13 04:22:31;;;;;;;16.02;4.88;;;11.20;99.90;;;;;;5023948;28;20487;-69
2022/05/13 04:24:57;;;;;;;11.15;4.47;;;11.20;99.90;;;;;;5006220;28;20772;-69
2022/05/13 04:27:23;;;;;;;12.27;4.40;;;11.20;99.90;;;;;;5006354;28;20480;-69
2022/05/13 04:29:49;;;;;;;9.27;4.55;;;11.30;99.90;;;;;;5006429;28;20057;-69
2022/05/13 04:32:15;;;;;;;12.95;4.93;;;11.20;99.90;;;;;;5006257;28;20080;-69
2022/05/13 04:34:40;;;;;;;11.73;5.13;;;11.30;99.90;;;;;;5023395;28;20111;-69
2022/05/13 04:37:06;;;;;;;11.95;4.53;;;11.30;99.90;;;;;;5006108;28;20179;-69
2022/05/13 04:39:32;;;;;;;14.43;4.93;;;11.30;99.90;;;;;;5006858;28;20076;-69
2022/05/13 04:44:42;;;;;;;13.02;5.18;;;11.40;99.90;;;;;;5007216;28;20695;-69
2022/05/13 04:48:15;;;;;;;13.95;5.25;;;11.40;99.90;;;;;;4989530;28;20037;-69
2022/05/13 04:49:53;;;;;;;12.25;4.55;;;11.40;99.90;;;;;;5006493;28;20057;-69
2022/05/13 04:52:19;;;;;;;10.07;5.32;;;11.40;99.90;;;;;;4998644;28;20030;-69
2022/05/13 04:54:45;;;;;;;13.68;5.13;;;11.40;99.90;;;;;;5022358;28;20570;-70
2022/05/13 04:57:11;;;;;;;12.63;5.32;;;11.40;99.90;;;;;;5022549;28;20099;-70
2022/05/13 04:59:37;;;;;;;14.65;5.40;;;11.40;99.90;;;;;;4990160;28;20037;-69
2022/05/13 05:02:03;;;;;;;14.25;4.07;;;11.40;99.90;;;;;;5017582;28;20057;-69
2022/05/13 05:04:28;;;;;;;16.63;5.25;;;11.50;99.90;;;;;;4971330;28;20038;-70
2022/05/13 05:06:55;;;;;;;16.73;5.10;;;11.50;99.90;;;;;;5005649;28;20097;-69
2022/05/13 05:09:20;;;;;;;14.18;5.07;;;11.60;99.90;;;;;;5005950;28;20045;-69
2022/05/13 05:11:46;;;;;;;13.07;5.05;;;11.60;99.90;;;;;;4989647;28;20045;-70
2022/05/13 05:14:12;;;;;;;14.65;4.85;;;11.60;99.90;;;;;;5009287;28;20129;-69
2022/05/13 05:16:38;;;;;;;14.65;4.95;;;11.70;99.90;;;;;;5023374;28;20041;-69
2022/05/13 05:19:04;;;;;;;14.25;5.00;;;11.70;99.90;;;;;;5009061;28;20049;-69
2022/05/13 05:21:30;;;;;;;17.48;5.35;;;11.80;99.90;;;;;;5008949;28;20124;-69
2022/05/13 05:23:56;;;;;;;11.27;4.45;;;11.80;99.90;;;;;;5025658;28;20124;-69
2022/05/13 05:26:22;;;;;;;13.43;4.70;;;11.90;99.90;;;;;;5009026;28;20129;-69
2022/05/13 05:28:51;;;;;;;16.05;4.50;;;11.90;99.90;;;;;;5025071;28;20056;-69
2022/05/13 05:31:17;;;;;;;15.35;5.22;;;12.00;99.90;;;;;;4991285;28;20187;-69
2022/05/13 05:33:46;;;;;;;12.07;4.63;;;12.00;99.90;;;;;;5004239;28;20046;-69
2022/05/13 05:36:11;;;;;;;14.80;4.70;;;12.10;99.90;;;;;;4987515;28;20045;-69
2022/05/13 05:38:37;;;;;;;13.80;4.53;;;12.10;99.90;;;;;;4991753;28;20054;-69
2022/05/13 05:41:03;;;;;;;12.80;4.47;;;12.10;99.90;;;;;;5009548;28;20049;-69
2022/05/13 05:43:29;;;;;;;14.85;5.07;;;12.10;99.90;;;;;;5024877;28;20050;-69
2022/05/13 05:45:58;;;;;;;12.90;4.82;;;12.20;99.90;;;;;;5023207;28;20073;-69
2022/05/13 05:48:24;;;;;;;15.88;4.68;;;12.40;99.90;;;;;;5025678;28;20045;-69
2022/05/13 05:50:51;;;;;;;16.40;5.45;;;12.40;99.90;;;;;;5025874;28;20056;-69
2022/05/13 05:58:47;;;;;;;11.90;3.75;;;12.80;99.90;;;;;;5019959;28;20052;-69
2022/05/13 06:01:16;;;;;;;11.65;4.15;;;12.90;99.90;;;;;;5021822;28;20069;-69
2022/05/13 06:03:41;;;;;;;16.00;5.47;;;13.00;99.90;;;;;;5039204;28;20122;-70
2022/05/13 06:06:09;;;;;;;11.68;4.53;;;13.10;99.90;;;;;;5022175;28;20484;-69
2022/05/13 06:08:35;;;;;;;14.13;4.28;;;13.20;99.90;;;;;;5008922;28;20053;-69
2022/05/13 06:11:01;;;;;;;11.52;4.35;;;13.20;99.90;;;;;;5025157;28;20081;-69
2022/05/13 06:13:27;;;;;;;15.38;4.45;;;13.20;99.90;;;;;;4991780;28;20076;-69
2022/05/13 06:15:53;;;;;;;14.20;4.55;;;13.30;99.90;;;;;;5008137;28;20399;-69
2022/05/13 06:18:18;;;;;;;13.43;4.72;;;13.40;99.90;;;;;;5005662;28;20046;-68
2022/05/13 06:20:44;;;;;;;14.27;4.45;;;13.40;99.90;;;;;;5008051;28;20042;-69
2022/05/13 06:23:10;;;;;;;10.73;4.70;;;13.50;99.90;;;;;;4988904;28;20065;-68
2022/05/13 06:25:36;;;;;;;13.75;4.85;;;13.50;99.90;;;;;;5014560;28;20055;-69
2022/05/13 06:28:02;;;;;;;13.60;4.65;;;13.50;99.90;;;;;;5004318;28;20400;-69
2022/05/13 06:30:31;;;;;;;15.15;5.65;;;13.60;99.90;;;;;;5005238;28;20369;-70
2022/05/13 06:32:58;;;;;;;12.88;4.80;;;13.60;99.90;;;;;;5021399;28;20038;-69
2022/05/13 06:35:25;;;;;;;15.00;5.10;;;13.60;99.90;;;;;;5004653;28;20045;-70
2022/05/13 06:37:51;;;;;;;15.23;5.22;;;13.60;99.90;;;;;;5022987;28;20506;-69
2022/05/13 06:40:18;;;;;;;13.27;5.20;;;13.70;99.90;;;;;;5005301;28;20482;-70
2022/05/13 06:42:44;;;;;;;13.57;5.03;;;13.70;99.90;;;;;;5024764;28;20128;-70
2022/05/13 06:45:10;;;;;;;13.13;5.07;;;13.80;99.90;;;;;;5008402;28;20342;-70
2022/05/13 06:47:36;;;;;;;12.93;4.45;;;13.80;99.90;;;;;;5007528;28;20056;-70
2022/05/13 06:50:04;;;;;;;7.35;2.50;;;14.00;99.90;;;;;;5008308;28;20046;-70
2022/05/13 06:52:30;;;;;;;7.45;2.33;;;14.00;99.90;;;;;;5007777;28;20091;-70
2022/05/13 06:54:56;;;;;;;7.97;1.98;;;14.10;99.90;;;;;;5007666;28;20046;-70
2022/05/13 06:57:21;;;;;;;6.75;2.03;;;14.10;99.90;;;;;;4990356;28;20077;-69
2022/05/13 06:59:47;;;;;;;6.00;1.95;;;14.20;99.90;;;;;;5007784;28;20124;-69
2022/05/13 07:02:17;;;;;;;8.00;2.72;;;14.20;99.90;;;;;;5020742;28;20506;-70
2022/05/13 07:04:44;;;;;;;7.63;1.88;;;14.20;99.90;;;;;;4989190;28;20452;-70
2022/05/13 07:07:11;;;;;;;8.10;2.08;;;14.20;99.90;;;;;;5010077;28;20056;-70
2022/05/13 07:09:37;;;;;;;8.05;2.10;;;14.20;99.90;;;;;;5026783;28;20041;-70
2022/05/13 07:12:03;;;;;;;8.02;2.00;;;14.20;99.90;;;;;;5010937;28;20103;-69
2022/05/13 07:14:29;;;;;;;9.35;1.95;;;14.20;99.90;;;;;;5009475;28;20403;-70
2022/05/13 07:16:55;;;;;;;11.07;2.33;;;14.20;99.90;;;;;;5026368;28;20040;-69
2022/05/13 07:19:22;;;;;;;10.07;2.22;;;14.20;99.90;;;;;;5010282;28;20526;-70
2022/05/13 07:21:48;;;;;;;7.85;2.05;;;14.30;99.90;;;;;;5009875;28;20040;-70
2022/05/13 07:24:14;;;;;;;8.10;1.98;;;14.30;99.90;;;;;;5026328;28;20718;-70
2022/05/13 07:26:40;;;;;;;8.63;2.40;;;14.30;99.90;;;;;;5022968;28;20041;-69
2022/05/13 07:29:06;;;;;;;10.07;2.50;;;14.30;99.90;;;;;;5010995;28;20045;-70
2022/05/13 07:31:33;;;;;;;5.72;1.88;;;14.30;99.90;;;;;;4993936;28;20093;-69
2022/05/13 07:33:59;;;;;;;6.90;1.95;;;14.30;99.90;;;;;;5026834;28;20040;-70
2022/05/13 07:36:25;;;;;;;5.15;1.83;;;14.30;99.90;;;;;;4992179;28;20033;-69
2022/05/13 07:41:36;;;;;;;5.00;1.67;;;14.50;99.90;;;;;;5022404;28;20060;-69
2022/05/13 07:44:02;;;;;;;7.50;1.77;;;14.80;99.90;;;;;;5026793;28;20053;-70
2022/05/13 07:46:28;;;;;;;7.05;1.83;;;15.00;99.90;;;;;;4993728;28;20107;-70
2022/05/13 07:48:54;;;;;;;6.00;1.80;;;15.10;99.90;;;;;;5025332;28;20122;-70
2022/05/13 07:51:23;;;;;;;6.45;1.58;;;15.40;99.90;;;;;;5009818;28;20127;-70
2022/05/13 07:53:49;;;;;;;10.20;1.73;;;15.50;99.90;;;;;;5009853;28;20056;-70
2022/05/13 07:56:15;;;;;;;5.05;1.70;;;15.60;99.90;;;;;;5023869;28;20047;-70
2022/05/13 07:58:40;;;;;;;4.95;1.48;;;15.60;99.90;;;;;;5009556;28;20072;-70
2022/05/13 08:01:06;;;;;;;5.10;1.65;;;15.60;99.90;;;;;;5024011;28;20045;-70
2022/05/13 08:03:32;;;;;;;7.63;1.65;;;15.60;99.90;;;;;;4992631;28;20403;-69
2022/05/13 08:06:03;;;;;;;6.07;1.75;;;15.70;99.90;;;;;;5006342;28;20827;-70
2022/05/13 08:08:40;;;;;;;6.32;1.63;;;15.70;99.90;;;;;;5025952;28;20114;-69
2022/05/13 08:11:08;;;;;;;6.03;1.30;;;15.60;99.90;;;;;;5009801;28;20052;-69
2022/05/13 08:13:34;;;;;;;3.97;1.33;;;15.50;99.90;;;;;;5009140;28;20053;-69
2022/05/13 08:16:04;;;;;;;6.43;1.60;;;15.50;99.90;;;;;;5026092;28;20375;-70
2022/05/13 08:18:30;;;;;;;8.00;1.60;;;15.40;99.90;;;;;;5009101;28;20542;-69
2022/05/13 08:20:56;;;;;;;4.40;1.40;;;15.40;99.90;;;;;;5009995;28;20106;-69
2022/05/13 08:23:23;;;;;;;7.85;1.90;;;15.40;99.90;;;;;;5025795;28;20051;-69
2022/05/13 08:25:49;;;;;;;6.15;1.45;;;15.30;99.90;;;;;;5021434;28;20268;-69
2022/05/13 08:28:18;;;;;;;5.93;1.90;;;15.40;99.90;;;;;;5025454;28;20387;-69
2022/05/13 08:30:44;;;;;;;6.20;1.33;;;15.50;99.90;;;;;;5024510;28;20183;-70
2022/05/13 08:33:11;;;;;;;8.02;1.58;;;15.60;99.90;;;;;;5009180;28;20040;-70
2022/05/13 08:35:50;;;;;;;5.43;1.73;;;15.50;99.90;;;;;;5024914;28;20580;-70
2022/05/13 08:38:24;;;;;;;4.85;1.45;;;15.50;99.90;;;;;;5026124;28;20051;-70
2022/05/13 08:40:51;;;;;;;11.45;2.00;;;15.60;99.90;;;;;;5009118;28;20179;-70
2022/05/13 08:43:18;;;;;;;5.22;1.60;;;15.80;99.90;;;;;;5025522;28;20045;-69
2022/05/13 08:46:16;;;;;;;7.50;1.60;;;16.10;99.90;;;;;;5024174;28;20077;-70
2022/05/13 08:48:58;;;;;;;3.17;1.20;;;16.40;99.90;;;;;;5029893;28;20041;-69
2022/05/13 08:51:37;;;;;;;5.13;1.48;;;16.60;99.90;;;;;;5028265;28;20121;-70
2022/05/13 08:54:15;;;;;;;6.30;1.40;;;16.50;99.90;;;;;;5012153;28;20051;-70
2022/05/13 08:56:51;;;;;;;5.35;1.33;;;16.30;99.90;;;;;;5027907;28;20056;-70
2022/05/13 08:59:16;;;;;;;4.07;1.50;;;16.10;99.90;;;;;;5027496;28;20048;-70
2022/05/13 09:02:10;;;;;;;5.30;1.60;;;16.00;99.90;;;;;;5025563;28;20037;-70
2022/05/13 09:04:46;;;;;;;5.88;1.60;;;16.10;99.90;;;;;;5027759;28;20045;-70
2022/05/13 09:07:20;;;;;;;8.65;1.80;;;16.30;99.90;;;;;;5044225;28;20518;-71
2022/05/13 09:09:52;;;;;;;7.10;1.50;;;16.70;99.90;;;;;;4996219;28;20044;-71
2022/05/13 09:12:31;;;;;;;5.57;1.48;;;16.80;99.90;;;;;;5027229;28;20047;-69
2022/05/13 09:15:03;;;;;;;5.23;1.30;;;16.80;99.90;;;;;;5012574;28;20131;-70
2022/05/13 09:18:06;;;;;;;6.38;1.88;;;16.60;99.90;;;;;;5028528;28;20280;-70
2022/05/13 09:21:17;;;;;;;5.32;1.35;;;16.60;99.90;;;;;;5027929;28;20127;-69
2022/05/13 09:23:43;;;;;;;;;;;16.60;99.90;;;;;;4967300;28;20044;-70
2022/05/13 09:26:27;;;;;;;4.70;1.25;;;16.70;99.90;;;;;;5026586;28;19924;-69
2022/05/13 09:29:16;;;;;;;8.20;2.03;;;16.70;99.90;;;;;;5011254;28;20049;-69
2022/05/13 09:32:13;;;;;;;6.00;1.65;;;16.60;99.90;;;;;;5028631;28;20041;-69
2022/05/13 09:34:48;;;;;;;4.45;1.20;;;16.50;99.90;;;;;;5009962;28;20049;-70
2022/05/13 09:37:26;;;;;;;4.55;1.15;;;16.50;99.90;;;;;;5028225;28;20045;-69
2022/05/13 09:40:17;;;;;;;4.90;1.15;;;16.30;99.90;;;;;;5028332;28;20060;-69
2022/05/13 09:42:46;;;;;;;6.47;1.80;;;16.20;99.90;;;;;;5011705;28;20131;-69
2022/05/13 09:45:33;;;;;;;5.97;1.50;;;16.00;99.90;;;;;;5029214;28;20056;-69
2022/05/13 09:48:08;;;;;;;7.70;1.40;;;16.00;99.90;;;;;;5028352;28;20041;-69
2022/05/13 09:50:55;;;;;;;4.03;1.27;;;15.90;99.90;;;;;;5005936;28;20051;-69
2022/05/13 09:53:21;;;;;;;4.03;1.45;;;15.90;99.90;;;;;;5009415;28;20041;-69
2022/05/13 09:55:49;;;;;;;5.40;1.30;;;15.80;99.90;;;;;;5011729;28;20037;-68
2022/05/13 09:58:29;;;;;;;2.95;0.82;;;15.80;99.90;;;;;;5008109;28;20106;-69
2022/05/13 10:01:06;;;;;;;4.65;0.90;;;15.70;99.90;;;;;;5001515;28;20045;-68
2022/05/13 10:03:37;;;;;;;4.50;1.10;;;15.70;99.90;;;;;;5018037;28;20049;-69
2022/05/13 10:06:08;;;;;;;4.68;1.20;;;15.70;99.90;;;;;;4997607;28;20404;-69
2022/05/13 10:08:38;;;;;;;3.58;1.17;;;15.70;99.90;;;;;;5012919;28;20048;-69
2022/05/13 10:14:02;;;;;;;4.78;1.08;;;16.00;99.90;;;;;;5020297;28;20057;-69
2022/05/13 10:16:31;;;;;;;5.25;1.80;;;16.20;99.90;;;;;;4992642;28;20044;-70
2022/05/13 10:19:16;;;;;;;4.57;1.20;;;16.50;99.90;;;;;;4997211;28;20503;-69
2022/05/13 10:21:41;;;;;;;3.13;0.90;;;16.70;99.90;;;;;;5009501;28;20426;-70
2022/05/13 10:24:22;;;;;;;5.85;1.50;;;16.70;99.90;;;;;;4993036;28;20060;-69
2022/05/13 10:26:50;;;;;;;4.47;1.00;;;16.70;99.90;;;;;;5011580;28;20053;-69
2022/05/13 10:29:45;;;;;;;4.03;0.95;;;16.60;99.90;;;;;;5014432;28;20045;-69
2022/05/13 10:32:25;;;;;;;6.38;1.20;;;16.70;99.90;;;;;;5011491;28;20045;-70
2022/05/13 10:34:56;;;;;;;4.18;0.85;;;16.80;99.90;;;;;;5028798;28;20045;-69
2022/05/13 10:37:24;;;;;;;;;;;17.00;99.90;;;;;;5020722;28;20048;-70
2022/05/13 10:39:58;;;;;;;6.30;1.40;;;17.20;99.90;;;;;;4996332;28;19968;-70
2022/05/13 10:42:46;;;;;;;6.70;1.50;;;17.30;99.90;;;;;;5008816;28;20371;-69
2022/05/13 10:45:27;;;;;;;4.97;1.33;;;17.30;99.90;;;;;;5024740;28;20078;-70
2022/05/13 10:47:52;;;;;;;;;;;17.30;99.90;;;;;;5006543;28;20083;-70
2022/05/13 10:50:21;;;;;;;5.25;1.40;;;17.40;99.90;;;;;;4996590;28;20397;-70
2022/05/13 10:53:09;;;;;;;5.13;1.13;;;17.50;99.90;;;;;;5015021;28;20056;-69
2022/05/13 10:55:54;;;;;;;8.07;1.10;;;17.50;99.90;;;;;;5016707;28;20053;-69
2022/05/13 10:59:17;;;;;;;8.60;1.52;;;17.60;99.90;;;;;;5007724;28;20580;-69
2022/05/13 11:02:03;;;;;;;5.43;1.20;;;17.70;99.90;;;;;;4960595;28;20046;-69
2022/05/13 11:04:55;;;;;;;7.60;1.20;;;18.10;99.90;;;;;;4974557;28;20044;-69
2022/05/13 11:07:34;;;;;;;6.68;1.17;;;18.30;97.90;;;;;;4992611;28;20122;-69
2022/05/13 11:10:15;;;;;;;7.20;1.38;;;18.30;96.10;;;;;;5002918;28;20065;-69
2022/05/13 11:12:57;;;;;;;5.75;1.20;;;18.20;96.20;;;;;;5026078;28;20411;-69
2022/05/13 11:15:37;;;;;;;4.70;0.90;;;17.90;97.20;;;;;;5044244;28;20089;-69
2022/05/13 11:18:12;;;;;;;6.93;1.40;;;17.80;97.50;;;;;;5013038;28;20045;-69
2022/05/13 11:20:59;;;;;;;6.97;1.90;;;17.60;98.70;;;;;;4995156;28;20037;-69
2022/05/13 11:26:58;;;;;;;5.68;1.50;;;17.40;98.30;;;;;;5016695;28;20044;-70
2022/05/13 11:29:45;;;;;;;5.95;1.02;;;17.20;99.40;;;;;;5008893;28;20088;-69
2022/05/13 11:32:23;;;;;;;4.28;1.30;;;17.20;99.90;;;;;;5032347;28;20045;-69
2022/05/13 11:35:06;;;;;;;5.32;1.30;;;17.20;99.70;;;;;;5013206;28;20352;-69
2022/05/13 11:37:38;;;;;;;4.82;1.38;;;17.20;99.90;;;;;;5011971;28;20139;-70
2022/05/13 11:40:23;;;;;;;2.92;1.00;;;17.40;99.30;;;;;;5010554;28;20200;-70
2022/05/13 11:43:19;;;;;;;6.70;1.50;;;17.40;99.50;;;;;;5011711;28;20159;-69
2022/05/13 11:46:01;;;;;;;6.57;1.80;;;17.50;99.80;;;;;;5020567;28;20132;-70
2022/05/13 11:48:29;;;;;;;6.70;2.65;;;17.70;99.90;;;;;;4994282;28;20621;-69
2022/05/13 11:51:10;;;;;;;5.65;1.30;;;18.10;99.90;;;;;;5009433;28;20053;-70
2022/05/13 11:53:46;;;;;;;5.80;1.30;;;18.30;99.00;;;;;;5044601;28;20402;-69
2022/05/13 11:56:31;;;;;;;6.97;1.80;;;18.20;97.70;;;;;;4998141;28;20056;-69
2022/05/13 11:59:11;;;;;;;6.50;1.80;;;18.00;97.90;;;;;;5028248;28;20056;-69
2022/05/13 12:01:39;;;;;;;5.68;1.73;;;17.80;99.90;;;;;;5021424;28;20048;-70
2022/05/13 12:04:14;;;;;;;7.47;2.00;;;17.80;99.90;;;;;;5025895;28;20124;-70
2022/05/13 12:06:52;;;;;;;8.52;1.70;;;17.80;99.90;;;;;;4995327;28;20060;-70
2022/05/13 12:09:31;;;;;;;6.78;1.60;;;18.00;99.90;;;;;;5026850;28;20056;-70
2022/05/13 12:11:57;;;;;;;5.53;1.80;;;18.30;99.90;;;;;;5019957;28;20040;-70
2022/05/13 12:14:50;;;;;;;6.00;1.67;;;18.40;99.40;;;;;;5007650;28;20052;-70
2022/05/13 12:17:28;;;;;;;6.72;1.58;;;18.40;99.90;;;;;;5014430;28;20399;-70
2022/05/13 12:19:59;;;;;;;6.38;1.95;;;18.30;99.50;;;;;;5002642;28;20045;-69
2022/05/13 12:22:44;;;;;;;5.90;1.58;;;18.20;97.60;;;;;;4999029;28;20057;-70
2022/05/13 12:25:33;;;;;;;6.90;1.60;;;18.10;99.50;;;;;;5000531;28;20046;-69
2022/05/13 12:28:11;;;;;;;6.07;1.40;;;18.00;98.90;;;;;;4999063;28;20041;-70
2022/05/13 12:30:46;;;;;;;5.57;1.52;;;17.80;98.30;;;;;;5023652;28;20045;-70
2022/05/13 12:33:21;;;;;;;6.50;1.55;;;17.60;99.60;;;;;;5028648;28;20257;-69
2022/05/13 12:39:11;;;;;;;8.73;1.77;;;17.60;99.90;;;;;;5012599;28;20211;-69
2022/05/13 12:41:43;;;;;;;6.15;1.83;;;17.70;98.80;;;;;;5008152;28;20067;-70
2022/05/13 12:44:13;;;;;;;5.32;1.38;;;17.90;98.50;;;;;;5008602;28;20042;-70
2022/05/13 12:46:40;;;;;;;;;;;18.10;99.40;;;;;;4994272;28;20048;-70
2022/05/13 12:49:48;;;;;;;7.15;1.48;;;18.20;99.60;;;;;;4996151;28;20383;-71
2022/05/13 12:52:29;;;;;;;9.55;1.73;;;18.30;98.50;;;;;;4962287;28;20053;-70
2022/05/13 12:55:21;;;;;;;4.75;1.30;;;18.20;97.70;;;;;;5033758;28;20049;-70
2022/05/13 12:58:05;;;;;;;5.72;1.42;;;18.10;96.90;;;;;;5012342;28;20507;-70
2022/05/13 13:00:42;;;;;;;6.60;1.23;;;17.90;96.40;;;;;;5005142;28;20037;-70
2022/05/13 13:03:12;;;;;;;5.60;1.63;;;17.80;96.80;;;;;;4993829;28;20040;-69
2022/05/13 13:05:41;;;;;;;7.47;1.38;;;17.60;96.00;;;;;;5006371;28;20049;-70
2022/05/13 13:08:18;;;;;;;5.20;1.30;;;17.50;97.10;;;;;;5018716;28;20049;-70
2022/05/13 13:10:55;;;;;;;6.63;1.80;;;17.50;98.80;;;;;;5014328;28;20135;-71
2022/05/13 13:13:38;;;;;;;7.00;1.60;;;17.60;98.00;;;;;;4994186;28;20042;-70
2022/05/13 13:16:15;;;;;;;7.32;1.50;;;17.70;97.90;;;;;;5019193;28;20052;-70
2022/05/13 13:18:41;;;;;;;4.93;1.40;;;17.60;97.60;;;;;;4996397;28;20408;-70
2022/05/13 13:21:10;;;;;;;6.55;1.13;;;17.50;96.90;;;;;;5004984;28;20030;-70
2022/05/13 13:23:42;;;;;;;7.00;1.67;;;17.50;97.70;;;;;;5014206;28;20131;-71
2022/05/13 13:26:11;;;;;;;10.00;2.03;;;17.40;99.00;;;;;;5003139;28;20061;-70
2022/05/13 13:28:40;;;;;;;7.13;2.05;;;17.40;99.90;;;;;;5002469;28;20050;-71
2022/05/13 13:31:15;;;;;;;5.88;1.70;;;17.40;99.90;;;;;;5003419;28;20901;-71
2022/05/13 13:33:50;;;;;;;8.15;2.20;;;17.40;99.90;;;;;;5022726;28;20076;-70
2022/05/13 13:36:29;;;;;;;5.88;1.63;;;17.40;99.90;;;;;;5026838;28;20128;-70